Time;durP1;ratioP1;P1;durP2;ratioP2;P2;SDS_P1;SDS_P2;PMS_P1;PMS_P2;Temp;Humidity;BMP_temperature;BMP_pressure;BME280_temperature;BME280_humidity;BME280_pressure;Samples;Min_cycle;Max_cycle;Signal;HPM_P1;HPM_P2
2022/10/03 00:01:37;;;;;;;32.93;30.37;;;;;;;10.31;100.00;101947.84;5093204;28;20483;-45
2022/10/03 00:04:18;;;;;;;32.13;29.63;;;;;;;10.23;100.00;101948.69;5093268;28;20469;-51
2022/10/03 00:06:57;;;;;;;31.97;29.40;;;;;;;10.18;100.00;101961.69;5092869;28;20510;-47
2022/10/03 00:09:42;;;;;;;37.40;32.50;;;;;;;10.13;100.00;101964.00;5093386;28;20488;-48
2022/10/03 00:12:18;;;;;;;33.30;29.83;;;;;;;10.05;100.00;101955.13;5092787;28;20495;-49
2022/10/03 00:14:59;;;;;;;33.30;29.93;;;;;;;10.01;100.00;101958.13;5092751;28;20518;-47
2022/10/03 00:17:41;;;;;;;32.60;29.60;;;;;;;9.98;100.00;101961.09;5092844;28;20425;-48
2022/10/03 00:20:34;;;;;;;33.20;30.40;;;;;;;9.95;100.00;101961.44;5092931;28;20491;-47
2022/10/03 00:23:07;;;;;;;30.10;28.27;;;;;;;9.92;100.00;101960.91;5086464;28;20441;-46
2022/10/03 00:25:49;;;;;;;31.60;28.40;;;;;;;9.92;100.00;101961.75;5091981;28;20546;-47
2022/10/03 00:28:28;;;;;;;31.33;28.77;;;;;;;9.92;100.00;101964.41;5093022;28;20837;-48
2022/10/03 00:31:08;;;;;;;31.80;29.03;;;;;;;9.93;100.00;101968.75;5092614;28;20433;-48
2022/10/03 00:33:50;;;;;;;33.50;29.90;;;;;;;9.93;100.00;101957.28;5092602;28;20479;-49
2022/10/03 00:36:27;;;;;;;31.87;28.87;;;;;;;9.91;100.00;101965.44;5092147;28;20510;-48
2022/10/03 00:39:20;;;;;;;31.40;29.07;;;;;;;9.92;100.00;101966.25;5092868;28;20453;-50
2022/10/03 00:42:13;;;;;;;32.30;29.03;;;;;;;9.97;100.00;101977.28;5092345;28;20453;-52
2022/10/03 00:45:20;;;;;;;33.70;30.90;;;;;;;10.01;100.00;101971.44;5092164;28;20461;-49
2022/10/03 00:48:23;;;;;;;33.63;29.73;;;;;;;10.10;100.00;101985.63;5092528;28;20829;-49
2022/10/03 00:51:06;;;;;;;32.43;29.73;;;;;;;10.13;100.00;101979.13;5092009;28;20455;-47
2022/10/03 00:53:48;;;;;;;32.90;29.90;;;;;;;10.17;100.00;101985.84;5092494;28;20784;-47
2022/10/03 00:56:42;;;;;;;33.53;30.50;;;;;;;10.18;100.00;101985.69;5091885;28;20461;-47
2022/10/03 00:59:25;;;;;;;31.80;29.00;;;;;;;10.21;100.00;101985.38;5092214;28;20433;-49
2022/10/03 01:01:53;;;;;;;33.37;29.43;;;;;;;10.24;100.00;101987.69;5092117;28;20449;-50
2022/10/03 01:04:44;;;;;;;33.13;29.83;;;;;;;10.27;100.00;101983.88;5091749;28;20475;-48
2022/10/03 01:07:27;;;;;;;32.23;29.57;;;;;;;10.30;100.00;102000.38;5092070;28;20489;-49
2022/10/03 01:10:08;;;;;;;32.50;29.40;;;;;;;10.31;100.00;101996.69;5091905;28;20433;-49
2022/10/03 01:12:54;;;;;;;32.67;29.57;;;;;;;10.32;100.00;102001.03;5091727;28;21024;-46
2022/10/03 01:15:30;;;;;;;30.47;28.17;;;;;;;10.31;100.00;102001.19;5091494;28;20522;-50
2022/10/03 01:18:15;;;;;;;32.30;29.50;;;;;;;10.34;100.00;101998.19;5092147;28;20426;-46
2022/10/03 01:20:54;;;;;;;31.93;28.93;;;;;;;10.34;100.00;102003.53;5091789;28;20441;-47
2022/10/03 01:23:43;;;;;;;32.53;30.00;;;;;;;10.34;100.00;102004.34;5091919;28;20449;-45
2022/10/03 01:26:27;;;;;;;32.13;29.40;;;;;;;10.34;100.00;102008.84;5091228;28;20473;-46
2022/10/03 01:31:53;;;;;;;33.20;30.20;;;;;;;10.35;100.00;102007.88;5091421;28;20495;-45
2022/10/03 01:34:27;;;;;;;33.20;30.60;;;;;;;10.34;100.00;102004.34;5091356;28;20425;-47
2022/10/03 01:37:07;;;;;;;32.33;29.43;;;;;;;10.34;100.00;102008.84;5091688;28;20450;-46
2022/10/03 01:39:42;;;;;;;31.77;29.17;;;;;;;10.34;100.00;102009.69;5091927;28;20804;-49
2022/10/03 01:42:16;;;;;;;33.73;30.63;;;;;;;10.35;100.00;102013.19;5091568;28;20441;-48
2022/10/03 01:45:00;;;;;;;33.10;30.50;;;;;;;10.36;100.00;102012.22;5091080;28;20457;-48
2022/10/03 01:47:36;;;;;;;33.00;30.10;;;;;;;10.37;100.00;102009.38;5091934;28;20558;-45
2022/10/03 01:50:12;;;;;;;34.80;31.70;;;;;;;10.39;100.00;102014.56;5091775;28;20437;-45
2022/10/03 01:52:48;;;;;;;33.73;30.20;;;;;;;10.43;100.00;102013.19;5091460;28;20502;-47
2022/10/03 01:55:23;;;;;;;33.00;29.70;;;;;;;10.46;100.00;102018.22;5090940;28;20502;-47
2022/10/03 01:57:59;;;;;;;33.67;30.40;;;;;;;10.48;100.00;102018.91;5091869;28;20721;-47
2022/10/03 02:00:37;;;;;;;32.67;29.90;;;;;;;10.51;100.00;102027.38;5091701;28;20445;-45
2022/10/03 02:03:11;;;;;;;30.33;28.23;;;;;;;10.54;100.00;102028.91;5091373;28;20445;-45
2022/10/03 02:05:48;;;;;;;28.77;27.40;;;;;;;10.57;100.00;102038.41;5090866;28;20477;-48
2022/10/03 02:08:30;;;;;;;28.70;27.20;;;;;;;10.58;100.00;102038.22;5091424;28;20425;-47
2022/10/03 02:11:01;;;;;;;33.23;30.27;;;;;;;10.58;100.00;102040.91;5091224;28;20992;-49
2022/10/03 02:13:41;;;;;;;31.23;28.90;;;;;;;10.59;100.00;102041.72;5091459;28;20454;-47
2022/10/03 02:16:15;;;;;;;33.00;29.60;;;;;;;10.60;100.00;102049.59;5090839;28;20450;-46
2022/10/03 02:18:50;;;;;;;32.27;29.00;;;;;;;10.61;100.00;102045.06;5091482;28;20422;-50
2022/10/03 02:21:20;;;;;;;31.60;28.77;;;;;;;10.63;100.00;102045.75;5089324;28;20437;-48
2022/10/03 02:23:52;;;;;;;31.03;28.53;;;;;;;10.62;100.00;102044.06;5074949;28;20430;-44
2022/10/03 02:26:56;;;;;;;32.50;29.60;;;;;;;10.64;100.00;102048.25;5074386;28;20527;-51
2022/10/03 02:29:51;;;;;;;31.17;28.50;;;;;;;10.67;100.00;102042.56;5074810;28;20426;-50
2022/10/03 02:33:10;;;;;;;31.77;29.27;;;;;;;10.70;100.00;102050.25;5074350;28;20978;-48
2022/10/03 02:36:05;;;;;;;32.30;29.10;;;;;;;10.70;100.00;102054.75;5074322;28;20458;-46
2022/10/03 02:38:49;;;;;;;33.27;30.00;;;;;;;10.71;100.00;102051.94;5074585;28;20476;-49
2022/10/03 02:41:47;;;;;;;33.30;30.67;;;;;;;10.71;100.00;102065.25;5074226;28;20415;-46
2022/10/03 02:44:42;;;;;;;32.33;29.70;;;;;;;10.70;100.00;102065.41;5074720;28;20483;-51
2022/10/03 02:47:38;;;;;;;36.93;30.60;;;;;;;10.69;100.00;102071.78;5074373;28;20443;-47
2022/10/03 02:50:44;;;;;;;32.20;29.90;;;;;;;10.68;100.00;102067.41;5074448;28;20480;-51
2022/10/03 02:53:59;;;;;;;30.43;28.13;;;;;;;10.65;100.00;102059.75;5074362;28;20501;-46
2022/10/03 02:57:09;;;;;;;34.90;31.43;;;;;;;10.62;100.00;102066.25;5046548;28;20466;-49
2022/10/03 03:00:05;;;;;;;33.73;30.40;;;;;;;10.64;100.00;102066.06;5074283;28;20435;-46
2022/10/03 03:03:01;;;;;;;33.60;30.70;;;;;;;10.62;100.00;102073.41;5074200;28;20496;-47
2022/10/03 03:05:44;;;;;;;33.20;30.20;;;;;;;10.61;100.00;102077.06;5073756;28;20482;-51
2022/10/03 03:08:32;;;;;;;33.20;30.20;;;;;;;10.60;100.00;102080.75;5073950;28;20919;-48
2022/10/03 03:11:26;;;;;;;31.97;29.50;;;;;;;10.63;100.00;102081.28;5074082;28;20492;-46
2022/10/03 03:14:42;;;;;;;31.07;29.20;;;;;;;10.62;100.00;102078.75;5074642;28;20487;-49
2022/10/03 03:17:25;;;;;;;31.30;29.13;;;;;;;10.62;100.00;102092.09;5068870;28;20450;-52
2022/10/03 03:20:28;;;;;;;29.70;28.10;;;;;;;10.61;100.00;102091.25;5082632;28;20977;-47
2022/10/03 03:23:20;;;;;;;30.27;28.50;;;;;;;10.62;100.00;102092.94;5086677;28;20517;-49
2022/10/03 03:26:10;;;;;;;30.43;28.83;;;;;;;10.64;100.00;102098.09;5093550;28;20481;-51
2022/10/03 03:28:49;;;;;;;30.93;29.00;;;;;;;10.64;100.00;102109.59;5094047;28;20425;-51
2022/10/03 03:31:29;;;;;;;31.33;29.73;;;;;;;10.63;100.00;102109.78;5093170;28;20445;-48
2022/10/03 03:34:09;;;;;;;31.77;29.97;;;;;;;10.62;100.00;102105.44;5094023;28;20498;-47
2022/10/03 03:36:41;;;;;;;29.60;28.20;;;;;;;10.61;100.00;102103.75;5093413;28;20873;-48
2022/10/03 03:39:24;;;;;;;29.43;28.13;;;;;;;10.61;100.00;102098.41;5093845;28;20475;-51
2022/10/03 03:42:08;;;;;;;28.60;27.40;;;;;;;10.61;100.00;102099.25;5093685;28;20442;-51
2022/10/03 03:45:18;;;;;;;30.10;28.83;;;;;;;10.63;100.00;102094.59;5093366;28;20489;-45
2022/10/03 03:48:03;;;;;;;28.30;27.20;;;;;;;10.59;100.00;102097.75;5093517;28;20430;-47
2022/10/03 03:50:47;;;;;;;28.90;27.70;;;;;;;10.55;100.00;102099.91;5093692;28;20490;-51
2022/10/03 03:53:52;;;;;;;28.30;26.90;;;;;;;10.53;100.00;102102.75;5093508;28;20445;-49
2022/10/03 03:56:46;;;;;;;29.13;27.57;;;;;;;10.54;100.00;102104.41;5090758;28;20453;-51
2022/10/03 03:59:27;;;;;;;27.90;26.50;;;;;;;10.52;100.00;102108.22;5093527;28;20826;-50
2022/10/03 04:02:10;;;;;;;27.80;26.70;;;;;;;10.47;100.00;102106.06;5093080;28;20853;-51
2022/10/03 04:05:00;;;;;;;28.20;27.00;;;;;;;10.43;100.00;102103.88;5092882;28;20421;-52
2022/10/03 04:07:43;;;;;;;27.70;26.53;;;;;;;10.39;100.00;102102.56;5093280;28;20469;-51
2022/10/03 04:10:26;;;;;;;27.40;26.20;;;;;;;10.38;100.00;102103.53;5093182;28;20498;-47
2022/10/03 04:13:23;;;;;;;27.60;26.50;;;;;;;10.34;100.00;102108.34;5092856;28;20507;-49
2022/10/03 04:16:10;;;;;;;26.93;25.83;;;;;;;10.30;100.00;102107.03;5092795;28;20454;-53
2022/10/03 04:18:59;;;;;;;26.93;25.93;;;;;;;10.25;100.00;102105.81;5093106;28;20831;-53
2022/10/03 04:21:44;;;;;;;27.30;26.30;;;;;;;10.20;100.00;102110.81;5090165;28;20452;-53
2022/10/03 04:24:32;;;;;;;27.00;25.90;;;;;;;10.18;100.00;102107.47;5093063;28;20426;-50
2022/10/03 04:27:26;;;;;;;26.70;25.60;;;;;;;10.15;100.00;102118.47;5092738;28;20470;-47
2022/10/03 04:30:05;;;;;;;26.43;25.33;;;;;;;10.12;100.00;102116.91;5093074;28;20433;-51
2022/10/03 04:32:57;;;;;;;26.00;24.90;;;;;;;10.12;100.00;102127.59;5092534;28;20471;-49
2022/10/03 04:35:43;;;;;;;27.00;25.90;;;;;;;10.08;100.00;102123.56;5092352;28;20513;-48
2022/10/03 04:38:20;;;;;;;27.63;26.43;;;;;;;10.06;100.00;102122.03;5092887;28;20425;-49
2022/10/03 04:40:55;;;;;;;27.10;25.90;;;;;;;10.00;100.00;102118.19;5092596;28;20488;-48
2022/10/03 04:43:37;;;;;;;26.20;25.10;;;;;;;9.97;100.00;102119.31;5091924;28;20449;-49
2022/10/03 04:46:19;;;;;;;26.60;25.50;;;;;;;9.93;100.00;102122.47;5091861;28;20518;-49
2022/10/03 04:48:56;;;;;;;26.10;25.00;;;;;;;9.92;100.00;102116.31;5092728;28;20433;-46
2022/10/03 04:51:40;;;;;;;26.30;25.20;;;;;;;9.94;100.00;102117.00;5092093;28;20490;-49
2022/10/03 04:54:20;;;;;;;26.83;25.73;;;;;;;10.00;100.00;102118.19;5092473;28;20508;-50
2022/10/03 04:56:56;;;;;;;26.83;25.73;;;;;;;10.08;100.00;102115.56;5091957;28;20923;-50
2022/10/03 04:59:36;;;;;;;26.70;25.60;;;;;;;10.17;100.00;102111.97;5092476;28;20429;-46
2022/10/03 05:02:16;;;;;;;27.10;26.00;;;;;;;10.27;100.00;102126.00;5092092;28;20449;-48
2022/10/03 05:04:59;;;;;;;27.03;25.93;;;;;;;10.35;100.00;102134.03;5091784;28;20522;-51
2022/10/03 05:07:40;;;;;;;28.30;27.10;;;;;;;10.40;100.00;102131.72;5092335;28;20820;-52
2022/10/03 05:10:26;;;;;;;28.00;26.80;;;;;;;10.48;100.00;102129.06;5092125;28;20433;-51
2022/10/03 05:13:02;;;;;;;28.20;27.00;;;;;;;10.55;100.00;102131.91;5091918;28;20499;-46
2022/10/03 05:15:35;;;;;;;28.37;27.27;;;;;;;10.61;100.00;102130.41;5091472;28;20622;-51
2022/10/03 05:18:14;;;;;;;27.07;26.07;;;;;;;10.66;100.00;102133.47;5092101;28;20422;-51
2022/10/03 05:20:53;;;;;;;26.30;25.30;;;;;;;10.71;100.00;102136.47;5091909;28;20491;-51
2022/10/03 05:23:40;;;;;;;27.10;26.10;;;;;;;10.79;100.00;102133.81;5091837;28;20442;-49
2022/10/03 05:26:18;;;;;;;27.50;26.40;;;;;;;10.82;100.00;102141.47;5091537;28;20477;-46
2022/10/03 05:29:15;;;;;;;27.07;26.03;;;;;;;10.85;100.00;102143.81;5092059;28;20433;-47
2022/10/03 05:31:49;;;;;;;28.20;27.10;;;;;;;10.89;100.00;102140.69;5091968;28;20456;-48
2022/10/03 05:34:28;;;;;;;27.37;26.37;;;;;;;10.94;100.00;102140.16;5092113;28;20919;-48
2022/10/03 05:37:20;;;;;;;27.00;26.00;;;;;;;11.02;100.00;102148.19;5091903;28;20495;-50
2022/10/03 05:39:58;;;;;;;26.60;25.60;;;;;;;11.06;100.00;102149.53;5091950;28;20433;-49
2022/10/03 05:42:36;;;;;;;26.60;25.60;;;;;;;11.10;100.00;102150.88;5091414;28;20452;-51
2022/10/03 05:45:20;;;;;;;26.53;25.53;;;;;;;11.15;100.00;102150.34;5091459;28;20494;-52
2022/10/03 05:47:51;;;;;;;26.43;25.43;;;;;;;11.17;100.00;102154.53;5091885;28;20839;-50
2022/10/03 05:51:12;;;;;;;26.70;25.70;;;;;;;11.22;100.00;102152.22;5091814;28;20499;-49
2022/10/03 05:54:05;;;;;;;27.40;26.40;;;;;;;11.38;100.00;102164.75;5029167;28;20498;-49
2022/10/03 05:56:56;;;;;;;26.20;25.20;;;;;;;11.55;100.00;102169.06;5016711;28;20468;-47
2022/10/03 05:59:42;;;;;;;25.90;24.90;;;;;;;11.75;100.00;102159.72;5090514;28;20459;-47
2022/10/03 06:02:35;;;;;;;26.00;25.00;;;;;;;12.08;100.00;102163.16;5095587;28;20449;-48
2022/10/03 06:05:24;;;;;;;26.50;25.50;;;;;;;12.45;100.00;102166.03;5095242;28;20457;-50
2022/10/03 06:08:19;;;;;;;26.20;25.20;;;;;;;12.67;100.00;102167.91;5095728;28;20520;-51
2022/10/03 06:10:52;;;;;;;26.20;25.20;;;;;;;12.97;100.00;102163.53;5082531;28;20790;-48
2022/10/03 06:13:37;;;;;;;27.13;26.13;;;;;;;13.16;100.00;102171.16;5095559;28;20475;-53
2022/10/03 06:16:21;;;;;;;26.93;25.93;;;;;;;13.05;100.00;102168.03;5095079;28;20465;-51
2022/10/03 06:19:10;;;;;;;27.53;26.43;;;;;;;12.98;100.00;102167.06;5095589;28;20516;-52
2022/10/03 06:22:28;;;;;;;28.60;27.50;;;;;;;12.89;100.00;102168.13;5092635;28;20561;-49
2022/10/03 06:25:31;;;;;;;27.40;26.30;;;;;;;13.09;100.00;102167.50;5094791;28;21167;-53
2022/10/03 06:28:29;;;;;;;27.00;26.00;;;;;;;13.44;100.00;102178.63;5095091;28;20464;-49
2022/10/03 06:31:21;;;;;;;27.53;26.53;;;;;;;13.60;100.00;102168.59;5095044;28;20436;-47
2022/10/03 06:34:07;;;;;;;27.57;26.57;;;;;;;13.50;100.00;102175.22;5095071;28;20490;-49
2022/10/03 06:37:00;;;;;;;27.90;26.90;;;;;;;13.55;100.00;102172.84;5091435;28;20478;-47
2022/10/03 06:39:56;;;;;;;27.90;26.90;;;;;;;13.48;100.00;102174.56;5094704;28;20470;-46
2022/10/03 06:42:52;;;;;;;27.50;26.43;;;;;;;13.47;100.00;102172.91;5094418;28;20970;-47
2022/10/03 06:45:49;;;;;;;26.60;25.60;;;;;;;13.54;100.00;102184.56;5094408;28;20490;-48
2022/10/03 06:48:40;;;;;;;26.20;25.30;;;;;;;13.62;100.00;102181.81;5094518;28;20473;-49
2022/10/03 06:52:02;;;;;;;27.20;26.20;;;;;;;13.74;100.00;102183.84;5093883;28;20433;-48
2022/10/03 06:55:31;;;;;;;27.30;26.30;;;;;;;13.88;100.00;102184.06;5021820;28;20440;-44
2022/10/03 06:58:29;;;;;;;26.07;25.17;;;;;;;13.96;100.00;102187.50;5094422;28;20553;-50
2022/10/03 07:01:18;;;;;;;26.50;25.60;;;;;;;13.97;100.00;102186.50;5094418;28;20434;-47
2022/10/03 07:04:06;;;;;;;27.33;26.43;;;;;;;14.05;100.00;102188.25;5094085;28;20442;-46
2022/10/03 07:06:48;;;;;;;28.40;27.40;;;;;;;14.10;100.00;102192.03;5092674;28;20503;-46
2022/10/03 07:09:53;;;;;;;28.37;27.37;;;;;;;14.20;100.00;102194.44;5094376;28;20429;-48
2022/10/03 07:13:05;;;;;;;27.77;26.77;;;;;;;14.36;100.00;102186.25;5093578;28;20516;-46
2022/10/03 07:15:57;;;;;;;27.60;26.60;;;;;;;14.57;100.00;102186.31;5093831;28;20465;-48
2022/10/03 07:19:14;;;;;;;26.53;25.63;;;;;;;14.84;100.00;102193.66;5094458;28;20524;-48
2022/10/03 07:22:17;;;;;;;28.13;27.23;;;;;;;15.07;100.00;102201.56;5093300;28;20849;-46
2022/10/03 07:25:25;;;;;;;28.20;27.30;;;;;;;15.17;100.00;102198.56;5093809;28;20787;-48
2022/10/03 07:28:06;;;;;;;28.70;27.80;;;;;;;15.10;100.00;102195.81;5089873;28;20550;-47
2022/10/03 07:30:53;;;;;;;29.30;28.30;;;;;;;15.27;100.00;102197.22;5092942;28;20487;-48
2022/10/03 07:33:39;;;;;;;28.47;27.57;;;;;;;15.07;100.00;102193.50;5093519;28;20467;-47
2022/10/03 07:40:02;;;;;;;27.60;26.70;;;;;;;14.81;100.00;102201.28;5089457;28;20434;-50
2022/10/03 07:43:11;;;;;;;27.20;26.30;;;;;;;14.77;100.00;102210.72;5091913;28;20849;-47
2022/10/03 07:45:44;;;;;;;27.80;26.90;;;;;;;14.75;100.00;102215.47;5090926;28;20839;-52
2022/10/03 07:48:56;;;;;;;28.63;27.73;;;;;;;14.56;100.00;102206.13;5091627;28;20558;-48
2022/10/03 07:51:34;;;;;;;27.93;27.03;;;;;;;14.53;100.00;102211.03;5091793;28;20437;-47
2022/10/03 07:54:28;;;;;;;28.37;27.47;;;;;;;14.49;100.00;102224.00;5092391;28;20911;-48
2022/10/03 07:57:47;;;;;;;27.00;26.17;;;;;;;14.39;100.00;102221.56;5091447;28;20590;-51
2022/10/03 08:00:25;;;;;;;28.37;27.47;;;;;;;14.32;100.00;102222.50;5044419;28;20857;-47
2022/10/03 08:03:32;;;;;;;29.03;28.13;;;;;;;14.35;100.00;102220.31;5091755;28;20514;-46
2022/10/03 08:06:16;;;;;;;28.73;27.83;;;;;;;14.48;100.00;102225.03;5091141;28;20461;-46
2022/10/03 08:09:01;;;;;;;29.83;28.83;;;;;;;14.46;100.00;102234.25;5090618;28;20469;-49
2022/10/03 08:11:44;;;;;;;28.40;27.50;;;;;;;14.46;100.00;102239.63;5090860;28;20990;-46
2022/10/03 08:14:19;;;;;;;29.33;28.43;;;;;;;14.57;100.00;102241.88;5092343;28;20916;-46
2022/10/03 08:17:06;;;;;;;27.73;26.83;;;;;;;14.56;100.00;102241.03;5090677;28;20452;-49
2022/10/03 08:19:52;;;;;;;28.90;28.00;;;;;;;14.64;100.00;102246.28;5090618;28;20426;-49
2022/10/03 08:22:31;;;;;;;51.30;47.87;;;;;;;14.82;100.00;102240.53;5091187;28;20503;-46
2022/10/03 08:25:25;;;;;;;29.90;28.50;;;;;;;14.77;100.00;102242.94;5091271;28;20510;-46
2022/10/03 08:28:18;;;;;;;29.80;28.50;;;;;;;14.88;100.00;102247.81;5090958;28;20476;-52
2022/10/03 08:31:10;;;;;;;31.70;29.83;;;;;;;14.84;100.00;102250.06;5090928;28;20516;-47
2022/10/03 08:34:41;;;;;;;36.13;32.83;;;;;;;14.88;100.00;102255.88;5085935;28;20455;-47
2022/10/03 08:37:29;;;;;;;37.73;35.03;;;;;;;14.86;100.00;102256.09;4949737;29;20918;-46
2022/10/03 08:40:38;;;;;;;36.83;34.33;;;;;;;14.95;100.00;102259.50;5003307;28;20449;-46
2022/10/03 08:43:42;;;;;;;28.20;27.30;;;;;;;15.03;100.00;102263.91;5042322;28;20514;-48
2022/10/03 08:46:35;;;;;;;28.77;27.77;;;;;;;15.00;100.00;102266.97;5090801;28;20457;-53
2022/10/03 08:49:35;;;;;;;28.40;27.50;;;;;;;15.05;100.00;102265.41;5090565;28;20469;-48
2022/10/03 08:52:20;;;;;;;28.53;27.63;;;;;;;15.03;100.00;102275.50;5065749;28;20458;-51
2022/10/03 08:55:21;;;;;;;27.10;26.30;;;;;;;15.05;100.00;102265.41;5091567;28;20472;-47
2022/10/03 08:58:08;;;;;;;28.20;27.30;;;;;;;15.19;100.00;102266.38;5090689;28;20432;-47
2022/10/03 09:00:56;;;;;;;28.50;27.60;;;;;;;15.30;100.00;102276.63;5090762;28;20441;-52
2022/10/03 09:04:03;;;;;;;27.97;27.07;;;;;;;15.32;100.00;102271.91;5091312;28;20449;-52
2022/10/03 09:07:03;;;;;;;26.90;26.10;;;;;;;15.24;100.00;102270.16;5059523;28;20465;-52
2022/10/03 09:10:20;;;;;;;27.43;26.53;;;;;;;15.35;100.00;102269.66;5085154;28;20462;-46
2022/10/03 09:13:20;;;;;;;25.77;24.97;;;;;;;15.38;99.92;102266.59;5085751;28;20452;-47
2022/10/03 09:16:23;;;;;;;25.60;24.80;;;;;;;15.43;99.67;102269.56;5090855;28;20461;-47
2022/10/03 09:19:11;;;;;;;25.40;24.70;;;;;;;15.32;99.94;102274.59;5072137;28;20433;-47
2022/10/03 09:22:10;;;;;;;25.87;25.17;;;;;;;15.54;99.12;102273.59;5090442;28;20853;-47
2022/10/03 09:25:05;;;;;;;25.50;24.80;;;;;;;15.73;99.70;102280.19;5070789;28;20501;-49
2022/10/03 09:27:58;;;;;;;25.67;24.97;;;;;;;16.09;99.56;102263.94;5083461;28;20433;-49
2022/10/03 09:30:45;;;;;;;25.97;25.27;;;;;;;16.15;94.85;102265.84;5087286;28;20436;-50
2022/10/03 09:33:50;;;;;;;26.80;26.00;;;;;;;16.50;94.24;102262.97;5089996;28;20468;-50
2022/10/03 09:36:45;;;;;;;23.73;23.13;;;;;;;16.24;92.25;102278.13;5073384;28;20518;-48
2022/10/03 09:39:39;;;;;;;22.47;21.97;;;;;;;16.09;93.89;102272.00;5090103;28;20490;-52
2022/10/03 09:42:42;;;;;;;23.17;22.57;;;;;;;16.36;94.61;102263.94;5089604;28;20453;-51
2022/10/03 09:45:36;;;;;;;23.87;23.17;;;;;;;16.31;92.10;102262.84;5090324;28;20850;-49
2022/10/03 09:48:26;;;;;;;25.07;23.97;;;;;;;16.49;91.46;102264.00;5089120;28;20490;-47
2022/10/03 09:51:19;;;;;;;23.57;22.67;;;;;;;16.47;91.07;102273.31;5088989;28;20498;-50
2022/10/03 09:54:21;;;;;;;24.07;23.07;;;;;;;16.50;92.70;102275.59;5090040;28;20433;-49
2022/10/03 09:57:37;;;;;;;23.53;22.53;;;;;;;16.38;92.13;102269.09;5085964;28;20945;-46
2022/10/03 10:00:30;;;;;;;23.60;22.60;;;;;;;16.36;92.15;102274.72;5007210;28;20520;-47
2022/10/03 10:03:36;;;;;;;23.10;22.10;;;;;;;16.55;92.19;102278.56;5007439;28;20982;-48
2022/10/03 10:06:22;;;;;;;22.80;21.80;;;;;;;16.64;90.94;102273.84;5082056;28;20480;-50
2022/10/03 10:09:39;;;;;;;22.80;21.80;;;;;;;16.65;92.45;102276.34;5089113;28;20476;-51
2022/10/03 10:12:43;;;;;;;19.80;18.90;;;;;;;16.50;91.89;102281.00;5089623;28;20453;-48
2022/10/03 10:15:57;;;;;;;19.17;18.57;;;;;;;16.50;91.80;102268.34;5089894;28;21093;-52
2022/10/03 10:18:37;;;;;;;19.03;18.50;;;;;;;16.34;95.53;102276.75;5089529;28;20472;-50
2022/10/03 10:21:40;;;;;;;18.03;17.73;;;;;;;16.19;99.58;102289.47;5089578;28;20437;-52
2022/10/03 10:24:53;;;;;;;18.33;18.03;;;;;;;15.83;100.00;102283.41;5062699;28;20433;-52
2022/10/03 10:28:00;;;;;;;17.80;17.50;;;;;;;15.70;100.00;102289.50;5081196;28;20499;-47
2022/10/03 10:30:51;;;;;;;18.37;17.97;;;;;;;15.60;100.00;102282.75;5086014;28;20464;-50
2022/10/03 10:33:58;;;;;;;18.77;18.33;;;;;;;15.51;100.00;102279.38;5090207;28;20464;-49
2022/10/03 10:37:06;;;;;;;20.17;19.67;;;;;;;15.80;100.00;102279.22;5089348;28;20468;-47
2022/10/03 10:40:01;;;;;;;19.20;18.70;;;;;;;15.87;100.00;102280.13;5083512;28;20483;-54
2022/10/03 10:43:08;;;;;;;19.97;19.47;;;;;;;16.09;97.15;102269.31;5085842;28;20502;-48
2022/10/03 10:46:26;;;;;;;18.80;18.40;;;;;;;16.36;98.11;102253.16;5093519;28;20453;-51
2022/10/03 10:49:29;;;;;;;18.60;18.10;;;;;;;16.55;94.63;102252.47;5092372;28;20564;-52
2022/10/03 10:52:33;;;;;;;17.70;17.30;;;;;;;16.45;96.78;102256.53;5091579;28;20502;-49
2022/10/03 10:55:47;;;;;;;17.83;17.40;;;;;;;16.47;96.27;102267.91;5057854;28;20513;-47
2022/10/03 10:59:11;;;;;;;16.83;16.43;;;;;;;16.35;95.53;102259.56;5092391;28;21059;-49
2022/10/03 11:02:15;;;;;;;18.17;17.63;;;;;;;16.77;95.74;102261.28;5087258;28;20574;-48
2022/10/03 11:05:23;;;;;;;17.30;16.90;;;;;;;16.82;95.32;102269.56;5093487;28;20872;-47
2022/10/03 11:08:23;;;;;;;17.07;16.57;;;;;;;16.12;96.18;102282.38;5086043;28;20463;-46
2022/10/03 11:11:26;;;;;;;15.50;15.20;;;;;;;15.84;100.00;102282.38;5091558;28;20533;-47
2022/10/03 11:14:34;;;;;;;15.70;15.40;;;;;;;15.82;100.00;102284.41;5090033;28;20437;-48
2022/10/03 11:17:52;;;;;;;16.90;16.50;;;;;;;15.94;100.00;102285.56;5061509;28;20542;-45
2022/10/03 11:21:04;;;;;;;20.03;19.53;;;;;;;16.25;100.00;102267.16;5030087;28;20424;-48
2022/10/03 11:24:13;;;;;;;18.40;17.90;;;;;;;16.44;100.00;102269.16;5091133;28;20456;-46
2022/10/03 11:27:22;;;;;;;18.13;17.73;;;;;;;16.51;100.00;102266.50;5091879;28;21004;-46
2022/10/03 11:30:07;;;;;;;18.40;17.90;;;;;;;16.51;100.00;102272.72;5092125;28;20477;-47
2022/10/03 11:33:13;;;;;;;18.60;18.10;;;;;;;16.36;100.00;102273.88;5087386;28;20469;-46
2022/10/03 11:36:31;;;;;;;18.43;17.93;;;;;;;16.33;100.00;102266.19;5092847;28;20465;-47
2022/10/03 11:39:04;;;;;;;18.07;17.57;;;;;;;16.42;100.00;102265.84;5091895;28;20437;-49
2022/10/03 11:41:53;;;;;;;18.07;17.57;;;;;;;16.68;100.00;102280.50;5092447;28;20579;-47
2022/10/03 11:44:26;;;;;;;17.60;16.70;;;;;;;16.67;100.00;102276.97;5092352;28;20438;-47
2022/10/03 11:47:14;;;;;;;17.07;16.77;;;;;;;16.79;99.89;102267.28;5092867;28;20433;-49
2022/10/03 11:50:03;;;;;;;17.70;17.20;;;;;;;16.81;99.67;102267.94;5093514;28;20514;-50
2022/10/03 11:52:35;;;;;;;15.80;15.40;;;;;;;16.75;97.99;102262.50;5093146;28;20936;-47
2022/10/03 11:55:23;;;;;;;15.50;15.10;;;;;;;16.55;99.42;102267.78;5093047;28;20483;-47
2022/10/03 11:58:03;;;;;;;15.10;14.60;;;;;;;16.44;98.74;102271.00;5093606;28;20494;-51
2022/10/03 12:00:35;;;;;;;15.63;15.23;;;;;;;16.64;98.85;102266.59;5093075;28;20433;-48
2022/10/03 12:03:18;;;;;;;14.87;14.57;;;;;;;16.67;97.98;102268.03;5093030;28;20441;-49
2022/10/03 12:08:53;;;;;;;14.40;14.00;;;;;;;16.57;97.01;102263.88;5092723;28;20459;-49
2022/10/03 12:08:55;;;;;;;14.20;13.80;;;;;;;16.60;96.96;102270.72;5093191;28;20421;-48
2022/10/03 12:11:27;;;;;;;13.67;13.30;;;;;;;16.55;98.82;102259.69;5092959;28;20884;-49
2022/10/03 12:14:12;;;;;;;14.20;13.80;;;;;;;16.60;100.00;102265.34;5093052;28;20425;-48
2022/10/03 12:16:57;;;;;;;14.30;14.00;;;;;;;16.70;98.19;102270.34;5092103;28;20990;-47
2022/10/03 12:19:31;;;;;;;15.10;14.60;;;;;;;16.81;96.79;102278.72;5093016;28;20479;-49
2022/10/03 12:22:09;;;;;;;14.17;13.70;;;;;;;16.83;91.23;102265.88;5092665;28;20445;-50
2022/10/03 12:24:40;;;;;;;12.93;12.53;;;;;;;16.54;91.33;102261.59;5092305;28;21153;-50
2022/10/03 12:27:20;;;;;;;12.30;11.80;;;;;;;16.46;94.43;102263.56;5092987;28;20471;-52
2022/10/03 12:29:57;;;;;;;13.37;12.70;;;;;;;16.40;93.92;102259.78;5092153;28;21100;-49
2022/10/03 12:32:42;;;;;;;12.90;12.30;;;;;;;16.54;94.93;102282.28;5092358;28;20461;-49
2022/10/03 12:35:33;;;;;;;13.30;12.70;;;;;;;16.71;94.65;102255.84;5092472;28;20853;-47
2022/10/03 12:38:21;;;;;;;13.20;12.60;;;;;;;16.70;94.64;102275.72;5092931;28;20455;-50
2022/10/03 12:41:01;;;;;;;12.07;11.47;;;;;;;16.38;93.58;102261.03;5092797;28;20438;-54
2022/10/03 12:43:41;;;;;;;11.63;11.10;;;;;;;16.13;95.84;102278.69;5092530;28;20510;-52
2022/10/03 12:46:15;;;;;;;11.90;11.40;;;;;;;16.21;95.04;102275.84;5091631;28;20519;-49
2022/10/03 12:48:49;;;;;;;12.27;11.77;;;;;;;16.35;93.37;102272.19;5092653;28;20818;-48
2022/10/03 12:51:35;;;;;;;11.27;10.67;;;;;;;16.23;94.77;102276.47;5092114;28;21047;-50
2022/10/03 12:54:15;;;;;;;11.60;11.10;;;;;;;16.17;94.81;102277.25;5092473;28;20432;-51